Airfield :
LOGIN :

Register | Disclaimer

   EN    FR    IT 

 










Legend :    VFR   Marginal VFR   IFR   Intensive IFR   Very Intensive IFR
Visi :
Ceiling :
>= 8 km
>= 3000ft
5 to 8 km
1000 to 3000 ft
1500m to 5 km
500 to 1000 ft
800 to 1500m
200 to 500 ft
< 800m
< 200 ft
Symbols :   Thunderstorms  Fog  Heavy snow  Heavy precipitations  Wind > 20 kt
SIGMETs :     Misc.  Thunderstorms  Icing  Turbulence  Mountain Waves  Volcanic Ashes







- Airport Elevation : 616 ft
- IATA code : PUF
- Download approach charts


LFBP - Pau

CURRENT METAR :
  • 270630Z AUTO 24006KT 210V270 9999 BKN007 OVC013 13/12 Q1018 TEMPO 2000 -RADZ OVC004

EXPIRED METARs :
  • 270600Z AUTO 22004KT 9999 BKN007 BKN012 BKN017 13/12 Q1018 TEMPO 2000 -RADZ OVC004
  • 270530Z AUTO VRB03KT 9999 BKN006 BKN012 OVC017 12/12 Q1018 TEMPO 2000 -RADZ OVC004
  • 270500Z AUTO 24006KT 9999 FEW006 BKN015 OVC028 12/12 Q1018 TEMPO 3000 -RADZ BR OVC003
  • 270430Z AUTO 26003KT 9999 SCT005 SCT018 BKN024 12/12 Q1018 TEMPO 3000 -RADZ BR OVC003
  • 270400Z AUTO 24006KT 210V270 4600 -DZ BR OVC004 12/12 Q1018 TEMPO OVC005

TAF TAF LFBP
Valid from the 27 at 06:00 until the 28 at 06:00 UTC


270500Z 2706/2806 28008KT 9999 BKN014
TEMPO 2706/2718 2000 -RADZ OVC004
BECMG 2719/2721 BKN030
PROB30
TEMPO 2721/2802 3000 -RA BKN020
No reported NOTAMs for that airfield.



MET'MAP, your aeronautical weather chart ! - Copyright ORBIFLY December 2007 - Disclaimer

ORBIFLY MET'MAP TEAM :

Programming & Development : Alexandra Zaïnal
Concept & Development : Baudouin d'Aumeries
Co-Development & Prog : Marc-Olivier Méhu
Technical & hardware support : Manuel Goepfert

Contact : metmap@orbifly.com




SOURCES & CREDITS :

   NOAA